createdAt,value
2018-11-28T00:00:34.531Z,2.30
2018-11-28T00:03:04.156Z,2.30
2018-11-28T00:05:32.568Z,2.20
2018-11-28T00:08:01.154Z,2.20
2018-11-28T00:10:29.553Z,2.30
2018-11-28T00:12:57.882Z,2.30
2018-11-28T00:15:26.269Z,2.20
2018-11-28T00:17:54.574Z,2.20
2018-11-28T00:20:23.530Z,2.20
2018-11-28T00:22:51.908Z,2.20
2018-11-28T00:25:20.449Z,2.20
2018-11-28T00:27:48.815Z,2.20
2018-11-28T00:30:21.757Z,2.10
2018-11-28T00:32:51.111Z,2.20
2018-11-28T00:35:20.604Z,2.30
2018-11-28T00:37:49.076Z,2.30
2018-11-28T00:40:19.343Z,2.30
2018-11-28T00:42:47.877Z,2.40
2018-11-28T00:45:17.942Z,2.40
2018-11-28T00:47:46.308Z,2.40
2018-11-28T00:50:22.356Z,2.40
2018-11-28T00:52:50.812Z,2.40
2018-11-28T00:55:19.305Z,2.40
2018-11-28T00:57:47.974Z,2.40
2018-11-28T01:00:21.098Z,2.40
2018-11-28T01:02:49.958Z,2.50
2018-11-28T01:05:18.454Z,2.50
2018-11-28T01:07:47.615Z,2.50
2018-11-28T01:10:18.024Z,2.50
2018-11-28T01:12:46.852Z,2.50
2018-11-28T01:15:16.136Z,2.50
2018-11-28T01:17:44.567Z,2.50
2018-11-28T01:20:17.200Z,2.50
2018-11-28T01:22:45.696Z,2.50
2018-11-28T01:25:16.315Z,2.50
2018-11-28T01:27:44.787Z,2.50
2018-11-28T01:30:18.900Z,2.50
2018-11-28T01:32:47.436Z,2.50
2018-11-28T01:35:17.277Z,2.50
2018-11-28T01:37:46.502Z,2.60
2018-11-28T01:40:21.172Z,2.60
2018-11-28T01:42:49.523Z,2.70
2018-11-28T01:45:19.088Z,2.60
2018-11-28T01:47:47.473Z,2.60
2018-11-28T01:50:16.854Z,2.70
2018-11-28T01:52:45.396Z,2.70
2018-11-28T01:55:15.166Z,2.70
2018-11-28T01:57:43.609Z,2.70
2018-11-28T02:00:17.959Z,2.70
2018-11-28T02:02:46.869Z,2.80
2018-11-28T02:05:15.297Z,2.80
2018-11-28T02:07:43.644Z,2.70
2018-11-28T02:10:15.893Z,2.70
2018-11-28T02:12:44.262Z,2.70
2018-11-28T02:15:14.860Z,2.70
2018-11-28T02:17:43.312Z,2.70
2018-11-28T02:20:12.771Z,2.80
2018-11-28T02:22:41.188Z,2.70
2018-11-28T02:25:11.070Z,2.70
2018-11-28T02:27:39.399Z,2.70
2018-11-28T02:30:11.554Z,2.70
2018-11-28T02:32:40.072Z,2.70
2018-11-28T02:35:10.025Z,2.60
2018-11-28T02:37:38.811Z,2.60
2018-11-28T02:40:09.023Z,2.60
2018-11-28T02:42:37.525Z,2.70
2018-11-28T02:45:11.475Z,2.70
2018-11-28T02:47:39.792Z,2.70
2018-11-28T02:50:09.532Z,2.70
2018-11-28T02:52:37.870Z,2.70
2018-11-28T02:55:08.423Z,2.70
2018-11-28T02:57:36.759Z,2.80
2018-11-28T03:00:18.227Z,2.80
2018-11-28T03:02:46.564Z,2.80
2018-11-28T03:05:15.204Z,2.80
2018-11-28T03:07:43.659Z,2.70
2018-11-28T03:10:17.721Z,2.80
2018-11-28T03:12:46.069Z,2.80
2018-11-28T03:15:17.729Z,2.80
2018-11-28T03:17:46.042Z,2.80
2018-11-28T03:20:14.389Z,2.80
2018-11-28T03:22:42.716Z,2.80
2018-11-28T03:25:11.596Z,2.80
2018-11-28T03:27:40.079Z,2.70
2018-11-28T03:30:12.375Z,2.80
2018-11-28T03:32:40.800Z,2.80
2018-11-28T03:35:10.714Z,2.90
2018-11-28T03:37:39.196Z,2.90
2018-11-28T03:40:07.900Z,2.90
2018-11-28T03:42:36.239Z,3.00
2018-11-28T03:45:06.619Z,3.00
2018-11-28T03:47:34.912Z,3.00
2018-11-28T03:50:03.273Z,3.10
2018-11-28T03:52:31.582Z,3.10
2018-11-28T03:54:59.906Z,3.10
2018-11-28T03:57:28.197Z,3.10
2018-11-28T03:59:56.553Z,3.10
2018-11-28T04:02:24.848Z,3.10
2018-11-28T04:04:53.596Z,3.20
2018-11-28T04:07:21.930Z,3.20
2018-11-28T04:09:50.274Z,3.20
2018-11-28T04:12:18.600Z,3.20
2018-11-28T04:14:46.912Z,3.30
2018-11-28T04:17:15.198Z,3.30
2018-11-28T04:19:43.532Z,3.30
2018-11-28T04:22:12.012Z,3.30
2018-11-28T04:24:40.330Z,3.30
2018-11-28T04:27:08.648Z,3.30
2018-11-28T04:29:36.947Z,3.30
2018-11-28T04:32:05.543Z,3.40
2018-11-28T04:34:33.920Z,3.40
2018-11-28T04:37:02.316Z,3.40
2018-11-28T04:39:30.652Z,3.40
2018-11-28T04:41:58.950Z,3.40
2018-11-28T04:44:27.307Z,3.50
2018-11-28T04:46:55.656Z,3.40
2018-11-28T04:49:23.974Z,3.50
2018-11-28T04:51:52.301Z,3.50
2018-11-28T04:54:20.724Z,3.50
2018-11-28T04:56:49.071Z,3.50
2018-11-28T04:59:17.438Z,3.60
2018-11-28T05:01:45.781Z,3.50
2018-11-28T05:04:14.149Z,3.60
2018-11-28T05:07:46.774Z,3.60
2018-11-28T05:10:31.908Z,3.60
2018-11-28T05:13:00.731Z,3.50
2018-11-28T05:15:33.574Z,3.50
2018-11-28T05:18:01.956Z,3.50
2018-11-28T05:20:32.559Z,3.50
2018-11-28T05:23:00.993Z,3.50
2018-11-28T05:25:29.364Z,3.50
2018-11-28T05:27:58.725Z,3.60
2018-11-28T05:30:28.063Z,3.60
2018-11-28T05:32:56.467Z,3.60
2018-11-28T05:35:32.862Z,3.60
2018-11-28T05:38:01.916Z,3.70
2018-11-28T05:40:30.322Z,3.70
2018-11-28T05:42:58.653Z,3.70
2018-11-28T05:45:27.022Z,3.70
2018-11-28T05:47:55.540Z,3.80
2018-11-28T05:50:23.887Z,3.80
2018-11-28T05:52:52.290Z,3.80
2018-11-28T05:55:21.840Z,3.80
2018-11-28T05:57:50.333Z,3.80
2018-11-28T06:00:38.718Z,3.90
2018-11-28T06:03:08.471Z,3.80
2018-11-28T06:05:37.972Z,3.90
2018-11-28T06:08:07.234Z,3.90
2018-11-28T06:10:35.565Z,3.90
2018-11-28T06:13:04.197Z,3.90
2018-11-28T06:15:32.651Z,3.90
2018-11-28T06:18:01.031Z,3.90
2018-11-28T06:20:29.747Z,3.90
2018-11-28T06:22:58.109Z,3.90
2018-11-28T06:25:26.451Z,3.90
2018-11-28T06:27:54.766Z,3.90
2018-11-28T06:30:23.088Z,4.00
2018-11-28T06:32:51.725Z,4.00
2018-11-28T06:35:19.725Z,4.00
2018-11-28T06:37:48.106Z,4.00
2018-11-28T06:40:24.185Z,4.00
2018-11-28T06:42:54.253Z,4.00
2018-11-28T06:45:27.227Z,4.00
2018-11-28T06:48:00.702Z,4.00
2018-11-28T06:50:34.232Z,4.00
2018-11-28T06:53:09.663Z,4.00
2018-11-28T06:55:43.695Z,4.00
2018-11-28T06:58:16.985Z,4.00
2018-11-28T07:00:50.343Z,4.00
2018-11-28T07:03:23.328Z,4.00
2018-11-28T07:05:56.755Z,4.10
2018-11-28T07:08:25.077Z,4.10
2018-11-28T07:10:54.200Z,4.10
2018-11-28T07:13:25.996Z,4.10
2018-11-28T07:15:59.561Z,4.10
2018-11-28T07:18:39.856Z,4.10
2018-11-28T07:21:08.931Z,4.10
2018-11-28T07:23:42.711Z,4.10
2018-11-28T07:26:15.708Z,4.20
2018-11-28T07:28:46.667Z,4.20
2018-11-28T07:31:15.519Z,4.20
2018-11-28T07:33:44.176Z,4.30
2018-11-28T07:36:17.009Z,4.30
2018-11-28T07:38:52.023Z,4.30
2018-11-28T07:41:25.229Z,4.40
2018-11-28T07:43:59.190Z,4.40
2018-11-28T07:46:32.472Z,4.40
2018-11-28T07:49:05.710Z,4.40
2018-11-28T07:51:34.040Z,4.40
2018-11-28T07:54:02.532Z,4.50
2018-11-28T07:56:36.504Z,4.50
2018-11-28T07:59:09.238Z,4.50
2018-11-28T08:01:42.317Z,4.50
2018-11-28T08:04:15.525Z,4.60
2018-11-28T08:06:48.712Z,4.60
2018-11-28T08:09:18.724Z,4.60
2018-11-28T08:11:48.860Z,4.70
2018-11-28T08:14:18.712Z,4.70
2018-11-28T08:16:52.178Z,4.70
2018-11-28T08:19:24.799Z,4.70
2018-11-28T08:21:56.028Z,4.80
2018-11-28T08:24:24.472Z,4.80
2018-11-28T08:26:53.621Z,4.80
2018-11-28T08:29:27.089Z,4.80
2018-11-28T08:32:00.677Z,4.80
2018-11-28T08:34:33.979Z,4.90
2018-11-28T08:37:03.491Z,4.90
2018-11-28T08:39:31.843Z,5.00
2018-11-28T08:42:02.915Z,4.90
2018-11-28T08:44:35.941Z,5.00
2018-11-28T08:47:09.736Z,5.20
2018-11-28T08:49:42.814Z,5.20
2018-11-28T08:52:11.565Z,5.10
2018-11-28T08:54:40.302Z,5.10
2018-11-28T08:57:12.427Z,5.40
2018-11-28T08:59:45.777Z,5.40
2018-11-28T09:02:19.310Z,5.20
2018-11-28T09:04:51.771Z,5.20
2018-11-28T09:07:20.075Z,5.10
2018-11-28T09:09:49.825Z,5.10
2018-11-28T09:12:20.989Z,5.10
2018-11-28T09:14:54.059Z,5.10
2018-11-28T09:17:27.187Z,5.20
2018-11-28T09:19:55.683Z,5.20
2018-11-28T09:22:26.205Z,5.20
2018-11-28T09:24:57.941Z,5.20
2018-11-28T09:27:30.427Z,5.30
2018-11-28T09:30:03.351Z,5.30
2018-11-28T09:32:41.516Z,5.20
2018-11-28T09:35:14.311Z,5.30
2018-11-28T09:37:46.552Z,5.30
2018-11-28T09:40:21.078Z,5.40
2018-11-28T09:42:57.125Z,5.40
2018-11-28T09:45:29.450Z,5.40
2018-11-28T09:48:02.627Z,5.40
2018-11-28T09:50:34.748Z,5.40
2018-11-28T09:53:03.116Z,5.40
2018-11-28T09:55:31.608Z,5.40
2018-11-28T09:58:05.435Z,5.50
2018-11-28T10:00:37.236Z,5.50
2018-11-28T10:03:05.904Z,5.50
2018-11-28T10:05:34.620Z,5.60
2018-11-28T10:08:03.399Z,5.60
2018-11-28T10:10:31.696Z,5.50
2018-11-28T10:13:00.070Z,5.60
2018-11-28T10:15:35.535Z,5.70
2018-11-28T10:18:06.174Z,5.80
2018-11-28T10:20:39.291Z,5.70
2018-11-28T10:23:12.441Z,5.80
2018-11-28T10:25:41.076Z,5.80
2018-11-28T10:28:09.812Z,5.80
2018-11-28T10:30:41.234Z,5.80
2018-11-28T10:33:15.053Z,5.80
2018-11-28T10:35:47.344Z,5.80
2018-11-28T10:40:49.226Z,5.80
2018-11-28T10:43:17.597Z,5.90
2018-11-28T10:45:52.148Z,5.90
2018-11-28T10:48:25.002Z,5.90
2018-11-28T10:50:58.887Z,5.90
2018-11-28T10:53:32.407Z,6.30
2018-11-28T10:56:05.986Z,6.20
2018-11-28T10:58:39.613Z,6.40
2018-11-28T11:01:13.321Z,6.20
2018-11-28T11:03:47.101Z,6.10
2018-11-28T11:06:20.947Z,6.20
2018-11-28T11:08:55.646Z,6.30
2018-11-28T11:11:29.320Z,6.30
2018-11-28T11:14:03.361Z,6.20
2018-11-28T11:16:42.183Z,6.30
2018-11-28T11:19:13.926Z,6.20
2018-11-28T11:21:47.426Z,6.20
2018-11-28T11:24:20.888Z,6.30
2018-11-28T11:26:57.447Z,6.30
2018-11-28T11:29:30.263Z,6.30
2018-11-28T11:32:03.815Z,6.30
2018-11-28T11:34:37.287Z,6.30
2018-11-28T11:37:11.073Z,6.30
2018-11-28T11:39:44.613Z,6.40
2018-11-28T11:42:17.749Z,6.40
2018-11-28T11:44:46.123Z,6.40
2018-11-28T11:47:14.543Z,6.40
2018-11-28T11:49:46.817Z,6.50
2018-11-28T11:52:17.973Z,6.50
2018-11-28T11:54:46.419Z,6.60
2018-11-28T11:57:14.728Z,6.70
2018-11-28T11:59:47.734Z,6.60
2018-11-28T12:02:20.864Z,6.80
2018-11-28T12:04:52.162Z,6.70
2018-11-28T12:07:20.505Z,6.80
2018-11-28T12:09:49.756Z,6.70
2018-11-28T12:12:21.740Z,6.80
2018-11-28T12:14:51.706Z,6.80
2018-11-28T12:17:20.332Z,6.80
2018-11-28T12:19:50.528Z,6.90
2018-11-28T12:22:23.720Z,6.90
2018-11-28T12:24:57.034Z,6.90
2018-11-28T12:27:26.134Z,7.00
2018-11-28T12:29:56.516Z,6.90
2018-11-28T12:32:26.415Z,6.90
2018-11-28T12:34:59.258Z,6.90
2018-11-28T12:37:32.701Z,6.90
2018-11-28T12:42:34.137Z,7.10
2018-11-28T12:45:02.507Z,7.10
2018-11-28T12:47:31.037Z,7.00
2018-11-28T12:49:59.325Z,7.00
2018-11-28T12:52:28.495Z,7.10
2018-11-28T12:55:01.715Z,7.10
2018-11-28T12:57:34.449Z,7.10
2018-11-28T13:00:03.564Z,7.10
2018-11-28T13:02:33.012Z,7.10
2018-11-28T13:05:04.104Z,7.00
2018-11-28T13:07:37.321Z,7.00
2018-11-28T13:10:12.832Z,7.00
2018-11-28T13:12:46.112Z,7.00
2018-11-28T13:15:22.006Z,7.00
2018-11-28T13:17:54.280Z,6.90
2018-11-28T13:20:28.482Z,6.90
2018-11-28T13:23:01.808Z,6.90
2018-11-28T13:25:35.594Z,6.90
2018-11-28T13:28:08.450Z,7.00
2018-11-28T13:30:42.572Z,7.10
2018-11-28T13:35:44.367Z,7.10
2018-11-28T13:38:13.572Z,7.10
2018-11-28T13:40:46.186Z,7.10
2018-11-28T13:43:19.588Z,7.10
2018-11-28T13:45:53.275Z,7.20
2018-11-28T13:48:26.498Z,7.10
2018-11-28T13:50:57.163Z,7.10
2018-11-28T13:53:25.730Z,7.20
2018-11-28T13:58:29.859Z,7.20
2018-11-28T14:01:02.399Z,7.20
2018-11-28T14:03:34.815Z,7.20
2018-11-28T14:06:03.101Z,7.20
2018-11-28T14:08:31.647Z,7.20
2018-11-28T14:11:05.230Z,7.20
2018-11-28T14:13:38.631Z,7.20
2018-11-28T14:16:12.183Z,7.20
2018-11-28T14:18:45.682Z,7.20
2018-11-28T14:21:18.818Z,7.10
2018-11-28T14:23:49.000Z,7.10
2018-11-28T14:26:18.594Z,7.20
2018-11-28T14:28:48.169Z,7.10
2018-11-28T14:31:21.492Z,7.10
2018-11-28T14:33:55.524Z,7.10
2018-11-28T14:36:28.522Z,7.20
2018-11-28T14:39:01.868Z,7.10
2018-11-28T14:41:31.938Z,7.10
2018-11-28T14:44:01.709Z,7.10
2018-11-28T14:46:31.370Z,7.20
2018-11-28T14:49:03.988Z,7.10
2018-11-28T14:51:34.702Z,7.10
2018-11-28T14:54:04.920Z,7.10
2018-11-28T14:56:33.416Z,7.10
2018-11-28T14:59:05.917Z,7.10
2018-11-28T15:01:38.364Z,7.00
2018-11-28T15:04:07.145Z,7.00
2018-11-28T15:06:46.819Z,7.00
2018-11-28T15:09:20.441Z,7.00
2018-11-28T15:11:49.578Z,6.90
2018-11-28T15:14:18.077Z,6.90
2018-11-28T15:16:50.308Z,6.90
2018-11-28T15:19:23.679Z,6.90
2018-11-28T15:21:57.319Z,6.90
2018-11-28T15:24:30.183Z,6.90
2018-11-28T15:26:59.304Z,6.80
2018-11-28T15:29:29.973Z,6.80
2018-11-28T15:32:00.153Z,6.90
2018-11-28T15:34:33.626Z,6.90
2018-11-28T15:37:06.970Z,6.90
2018-11-28T15:39:40.436Z,6.90
2018-11-28T15:42:14.423Z,6.90
2018-11-28T15:44:49.336Z,6.90
2018-11-28T15:47:22.699Z,6.90
2018-11-28T15:49:55.853Z,6.90
2018-11-28T15:52:29.079Z,6.90
2018-11-28T15:54:57.773Z,6.90
2018-11-28T15:57:26.200Z,6.90
2018-11-28T15:59:59.736Z,6.80
2018-11-28T16:02:32.620Z,6.80
2018-11-28T16:05:07.307Z,6.70
2018-11-28T16:07:40.080Z,6.70
2018-11-28T16:10:19.937Z,6.60
2018-11-28T16:12:49.640Z,6.50
2018-11-28T16:15:23.903Z,6.60
2018-11-28T16:18:01.876Z,6.50
2018-11-28T16:20:31.476Z,6.40
2018-11-28T16:23:05.401Z,6.40
2018-11-28T16:25:37.881Z,6.30
2018-11-28T16:28:12.563Z,6.30
2018-11-28T16:33:13.269Z,6.20
2018-11-28T16:35:41.768Z,6.20
2018-11-28T16:38:14.808Z,6.10
2018-11-28T16:40:43.153Z,6.20
2018-11-28T16:43:11.674Z,6.10
2018-11-28T16:45:40.056Z,6.10
2018-11-28T16:48:08.603Z,6.10
2018-11-28T16:50:37.011Z,6.10
2018-11-28T16:53:05.877Z,6.10
2018-11-28T16:55:34.281Z,6.10
2018-11-28T17:02:59.053Z,6.00
2018-11-28T17:05:27.483Z,5.90
2018-11-28T17:07:55.900Z,6.00
2018-11-28T17:10:25.389Z,6.00
2018-11-28T17:12:54.347Z,6.00
2018-11-28T17:15:22.671Z,6.00
2018-11-28T17:17:51.005Z,6.00
2018-11-28T17:20:20.338Z,6.00
2018-11-28T17:22:49.456Z,5.90
2018-11-28T17:25:21.042Z,5.90
2018-11-28T17:27:49.391Z,5.90
2018-11-28T17:30:21.055Z,5.90
2018-11-28T17:32:49.478Z,5.90
2018-11-28T17:35:17.862Z,5.90
2018-11-28T17:37:46.308Z,5.90
2018-11-28T17:40:17.559Z,5.90
2018-11-28T17:42:47.272Z,5.90
2018-11-28T17:45:16.831Z,5.90
2018-11-28T17:47:45.356Z,5.90
2018-11-28T17:50:20.442Z,5.90
2018-11-28T17:53:19.898Z,5.90
2018-11-28T17:55:52.849Z,5.90
2018-11-28T17:58:21.245Z,5.90
2018-11-28T18:00:49.852Z,5.90
2018-11-28T18:03:19.019Z,5.90
2018-11-28T18:05:47.475Z,5.90
2018-11-28T18:08:15.813Z,5.90
2018-11-28T18:10:44.213Z,5.90
2018-11-28T18:13:13.650Z,6.00
2018-11-28T18:15:43.818Z,6.00
2018-11-28T18:18:13.539Z,6.00
2018-11-28T18:20:41.979Z,6.00
2018-11-28T18:23:10.725Z,6.10
2018-11-28T18:25:40.075Z,6.00
2018-11-28T18:28:09.118Z,6.00
2018-11-28T18:30:38.163Z,6.00
2018-11-28T18:33:07.469Z,6.10
2018-11-28T18:35:36.620Z,6.10
2018-11-28T18:38:05.325Z,6.10
2018-11-28T18:40:33.741Z,6.10
2018-11-28T18:43:02.075Z,6.10
2018-11-28T18:45:32.066Z,6.10
2018-11-28T18:48:00.435Z,6.20
2018-11-28T18:50:28.775Z,6.20
2018-11-28T18:52:57.185Z,6.10
2018-11-28T18:55:25.600Z,6.10
2018-11-28T18:57:55.357Z,6.10
2018-11-28T19:00:25.900Z,6.10
2018-11-28T19:02:54.954Z,6.10
2018-11-28T19:05:23.433Z,6.10
2018-11-28T19:07:51.870Z,6.20
2018-11-28T19:10:26.211Z,6.20
2018-11-28T19:12:51.228Z,6.20
2018-11-28T19:15:21.665Z,6.20
2018-11-28T19:17:50.186Z,6.20
2018-11-28T19:20:19.806Z,6.20
2018-11-28T19:22:48.755Z,6.10
2018-11-28T19:25:18.244Z,6.10
2018-11-28T19:27:47.029Z,6.20
2018-11-28T19:30:30.971Z,6.10
2018-11-28T19:32:54.197Z,6.10
2018-11-28T19:35:23.734Z,6.20
2018-11-28T19:37:51.057Z,6.20
2018-11-28T19:40:27.247Z,6.20
2018-11-28T19:42:55.567Z,6.20
2018-11-28T19:45:24.091Z,6.20
2018-11-28T19:47:52.503Z,6.30
2018-11-28T19:50:27.227Z,6.20
2018-11-28T19:52:55.993Z,6.20
2018-11-28T19:55:24.679Z,6.20
2018-11-28T19:57:53.159Z,6.20
2018-11-28T20:00:21.721Z,6.10
2018-11-28T20:02:50.354Z,6.20
2018-11-28T20:05:18.735Z,6.20
2018-11-28T20:07:48.424Z,6.30
2018-11-28T20:10:20.251Z,6.30
2018-11-28T20:12:48.771Z,6.30
2018-11-28T20:15:19.664Z,6.30
2018-11-28T20:17:48.370Z,6.30
2018-11-28T20:20:17.362Z,6.30
2018-11-28T20:22:45.736Z,6.30
2018-11-28T20:25:17.283Z,6.30
2018-11-28T20:27:47.215Z,6.20
2018-11-28T20:30:18.203Z,6.20
2018-11-28T20:32:46.629Z,6.20
2018-11-28T20:35:15.014Z,6.20
2018-11-28T20:37:43.672Z,6.20
2018-11-28T20:40:14.426Z,6.20
2018-11-28T20:42:45.248Z,6.20
2018-11-28T20:45:13.608Z,6.20
2018-11-28T20:47:42.017Z,6.20
2018-11-28T20:50:11.779Z,6.20
2018-11-28T20:52:40.956Z,6.20
2018-11-28T20:55:10.302Z,6.20
2018-11-28T20:57:38.617Z,6.20
2018-11-28T21:00:11.001Z,6.20
2018-11-28T21:02:39.573Z,6.20
2018-11-28T21:05:08.008Z,6.20
2018-11-28T21:07:36.450Z,6.20
2018-11-28T21:10:12.264Z,6.30
2018-11-28T21:12:40.761Z,6.30
2018-11-28T21:15:09.182Z,6.30
2018-11-28T21:17:38.095Z,6.30
2018-11-28T21:20:11.742Z,6.30
2018-11-28T21:22:40.176Z,6.40
2018-11-28T21:25:10.474Z,6.40
2018-11-28T21:27:38.842Z,6.40
2018-11-28T21:30:12.266Z,6.40
2018-11-28T21:32:41.072Z,6.30
2018-11-28T21:35:13.870Z,6.30
2018-11-28T21:37:42.379Z,6.30
2018-11-28T21:40:11.184Z,6.30
2018-11-28T21:42:39.570Z,6.30
2018-11-28T21:45:11.460Z,6.30
2018-11-28T21:47:40.232Z,6.30
2018-11-28T21:50:11.946Z,6.40
2018-11-28T21:52:40.335Z,6.40
2018-11-28T21:55:14.852Z,6.40
2018-11-28T21:57:43.303Z,6.40
2018-11-28T22:00:14.099Z,6.40
2018-11-28T22:02:42.516Z,6.40
2018-11-28T22:05:11.908Z,6.40
2018-11-28T22:07:40.987Z,6.50
2018-11-28T22:10:14.182Z,6.50
2018-11-28T22:12:42.694Z,6.50
2018-11-28T22:15:12.277Z,6.50
2018-11-28T22:17:46.122Z,6.50
2018-11-28T22:20:15.143Z,6.50
2018-11-28T22:22:43.505Z,6.50
2018-11-28T22:25:15.799Z,6.50
2018-11-28T22:27:44.161Z,6.50
2018-11-28T22:30:14.848Z,6.50
2018-11-28T22:32:43.576Z,6.50
2018-11-28T22:35:12.711Z,6.60
2018-11-28T22:37:41.727Z,6.60
2018-11-28T22:40:15.183Z,6.60
2018-11-28T22:42:43.607Z,6.60
2018-11-28T22:45:16.067Z,6.60
2018-11-28T22:47:44.553Z,6.60
2018-11-28T22:50:13.375Z,6.60
2018-11-28T22:52:41.876Z,6.70
2018-11-28T22:55:12.406Z,6.70
2018-11-28T22:57:40.927Z,6.70
2018-11-28T23:00:12.740Z,6.70
2018-11-28T23:02:52.443Z,6.70
2018-11-28T23:05:22.132Z,6.70
2018-11-28T23:07:50.790Z,6.70
2018-11-28T23:10:19.191Z,6.70
2018-11-28T23:12:47.542Z,6.70
2018-11-28T23:15:15.867Z,6.70
2018-11-28T23:17:44.222Z,6.80
2018-11-28T23:20:12.584Z,6.80
2018-11-28T23:22:40.951Z,6.80
2018-11-28T23:25:11.845Z,6.70
2018-11-28T23:27:40.308Z,6.80
2018-11-28T23:30:16.359Z,6.80
2018-11-28T23:32:45.326Z,6.80
2018-11-28T23:35:13.850Z,6.80
2018-11-28T23:37:43.312Z,6.80
2018-11-28T23:40:15.711Z,6.80
2018-11-28T23:42:44.091Z,6.80
2018-11-28T23:45:13.365Z,6.90
2018-11-28T23:47:41.750Z,6.90
2018-11-28T23:50:12.495Z,6.90
2018-11-28T23:52:41.323Z,6.90
2018-11-28T23:55:18.112Z,6.90
2018-11-28T23:57:46.459Z,6.90
